createdAt,value
2023-05-01T00:04:01.225Z,71.40
2023-05-01T00:09:03.782Z,71.40
2023-05-01T00:14:07.410Z,70.90
2023-05-01T00:19:09.558Z,71.30
2023-05-01T00:24:15.053Z,70.70
2023-05-01T00:29:18.721Z,70.90
2023-05-01T00:34:21.039Z,70.60
2023-05-01T00:39:23.197Z,70.20
2023-05-01T00:44:26.905Z,70.40
2023-05-01T00:49:29.189Z,70.60
2023-05-01T00:54:31.371Z,70.40
2023-05-01T00:59:35.270Z,70.20
2023-05-01T01:04:37.516Z,70.20
2023-05-01T01:10:02.642Z,69.90
2023-05-01T01:15:16.717Z,70.80
2023-05-01T01:20:38.804Z,70.20
2023-05-01T01:26:12.239Z,70.90
2023-05-01T01:31:22.159Z,70.80
2023-05-01T01:36:41.202Z,70.40
2023-05-01T01:41:50.337Z,70.30
2023-05-01T01:46:54.774Z,70.50
2023-05-01T01:52:01.840Z,70.20
2023-05-01T01:57:07.458Z,70.40
2023-05-01T02:02:11.276Z,70.50
2023-05-01T02:07:17.394Z,70.50
2023-05-01T02:12:21.108Z,71.40
2023-05-01T02:17:24.004Z,70.40
2023-05-01T02:22:28.892Z,70.40
2023-05-01T02:27:35.323Z,70.60
2023-05-01T02:32:37.601Z,70.50
2023-05-01T02:37:41.329Z,70.40
2023-05-01T02:42:45.444Z,70.50
2023-05-01T02:47:51.650Z,70.20
2023-05-01T02:52:55.621Z,70.30
2023-05-01T02:57:59.142Z,70.20
2023-05-01T03:03:01.508Z,70.40
2023-05-01T03:08:05.594Z,70.30
2023-05-01T03:13:07.768Z,70.60
2023-05-01T03:18:10.054Z,70.60
2023-05-01T03:23:13.626Z,70.70
2023-05-01T03:28:15.919Z,70.80
2023-05-01T03:33:18.070Z,70.80
2023-05-01T03:38:21.624Z,70.90
2023-05-01T03:43:24.346Z,71.10
2023-05-01T03:48:26.724Z,71.90
2023-05-01T03:53:30.387Z,71.30
2023-05-01T03:58:33.670Z,71.40
2023-05-01T04:03:35.917Z,71.70
2023-05-01T04:08:39.616Z,72.10
2023-05-01T04:13:41.920Z,72.30
2023-05-01T04:18:44.053Z,72.20
2023-05-01T04:23:47.730Z,72.40
2023-05-01T04:28:49.853Z,72.70
2023-05-01T04:33:52.030Z,72.40
2023-05-01T04:38:55.702Z,72.30
2023-05-01T04:43:57.774Z,72.50
2023-05-01T04:48:59.920Z,72.00
2023-05-01T04:54:03.637Z,72.50
2023-05-01T04:59:05.726Z,72.70
2023-05-01T05:04:07.972Z,72.70
2023-05-01T05:09:11.709Z,73.20
2023-05-01T05:14:13.885Z,73.10
2023-05-01T05:19:16.498Z,72.70
2023-05-01T05:24:20.217Z,72.20
2023-05-01T05:29:22.396Z,72.70
2023-05-01T05:34:24.597Z,73.20
2023-05-01T05:39:28.133Z,71.90
2023-05-01T05:44:30.280Z,70.70
2023-05-01T05:49:32.349Z,70.20
2023-05-01T05:54:35.991Z,69.30
2023-05-01T05:59:38.158Z,67.30
2023-05-01T06:04:40.318Z,65.50
2023-05-01T06:09:43.903Z,62.40
2023-05-01T06:14:46.028Z,59.30
2023-05-01T06:19:48.407Z,58.40
2023-05-01T06:24:55.013Z,59.50
2023-05-01T06:29:57.444Z,57.20
2023-05-01T06:34:59.795Z,55.70
2023-05-01T06:40:03.553Z,55.10
2023-05-01T06:45:07.012Z,55.60
2023-05-01T06:50:11.327Z,55.50
2023-05-01T06:55:15.157Z,56.80
2023-05-01T07:00:18.665Z,54.80
2023-05-01T07:05:20.798Z,53.80
2023-05-01T07:10:24.339Z,53.80
2023-05-01T07:15:26.640Z,51.40
2023-05-01T07:20:28.823Z,50.10
2023-05-01T07:25:32.436Z,49.90
2023-05-01T07:30:35.636Z,51.40
2023-05-01T07:35:37.913Z,51.00
2023-05-01T07:40:41.576Z,49.60
2023-05-01T07:45:55.268Z,50.90
2023-05-01T07:50:57.591Z,50.40
2023-05-01T08:01:10.434Z,51.70
2023-05-01T08:06:12.590Z,50.10
2023-05-01T08:11:14.685Z,50.30
2023-05-01T08:16:19.789Z,50.10
2023-05-01T08:21:23.891Z,50.00
2023-05-01T08:26:26.064Z,49.80
2023-05-01T08:31:29.834Z,49.10
2023-05-01T08:36:32.320Z,48.90
2023-05-01T08:41:37.146Z,48.90
2023-05-01T08:46:46.927Z,47.20
2023-05-01T08:51:51.658Z,46.10
2023-05-01T08:56:54.736Z,46.10
2023-05-01T09:02:01.383Z,45.50
2023-05-01T09:07:04.103Z,45.10
2023-05-01T09:12:17.841Z,45.70
2023-05-01T09:17:23.568Z,44.60
2023-05-01T09:22:26.149Z,45.10
2023-05-01T09:27:28.592Z,45.50
2023-05-01T09:32:32.102Z,45.40
2023-05-01T09:37:35.282Z,44.80
2023-05-01T09:42:38.954Z,44.90
2023-05-01T09:47:44.112Z,44.10
2023-05-01T09:52:50.552Z,41.90
2023-05-01T09:57:53.382Z,42.00
2023-05-01T10:02:57.084Z,42.40
2023-05-01T10:08:01.314Z,41.40
2023-05-01T10:13:14.164Z,39.90
2023-05-01T10:18:18.345Z,38.30
2023-05-01T10:23:20.584Z,39.20
2023-05-01T10:28:23.277Z,39.30
2023-05-01T10:33:26.869Z,38.00
2023-05-01T10:38:34.248Z,37.30
2023-05-01T10:43:36.412Z,37.10
2023-05-01T10:48:56.637Z,37.60
2023-05-01T10:54:24.557Z,36.10
2023-05-01T10:59:48.741Z,36.70
2023-05-01T11:04:52.371Z,36.90
2023-05-01T11:09:56.068Z,36.80
2023-05-01T11:15:07.640Z,36.60
2023-05-01T11:20:12.592Z,34.90
2023-05-01T11:25:25.030Z,34.60
2023-05-01T11:30:36.109Z,34.60
2023-05-01T11:35:40.080Z,36.20
2023-05-01T11:40:42.210Z,35.80
2023-05-01T11:45:44.416Z,35.00
2023-05-01T11:50:48.152Z,34.20
2023-05-01T11:55:50.361Z,34.50
2023-05-01T12:00:52.551Z,34.60
2023-05-01T12:05:56.071Z,34.50
2023-05-01T12:10:58.451Z,33.80
2023-05-01T12:16:01.038Z,33.50
2023-05-01T12:21:15.689Z,33.50
2023-05-01T12:26:19.098Z,31.40
2023-05-01T12:31:22.170Z,32.40
2023-05-01T12:36:27.591Z,32.60
2023-05-01T12:41:48.441Z,32.10
2023-05-01T12:46:55.052Z,32.40
2023-05-01T12:52:00.862Z,33.20
2023-05-01T12:57:07.473Z,33.50
2023-05-01T13:02:10.215Z,33.80
2023-05-01T13:07:15.247Z,35.20
2023-05-01T13:12:17.450Z,34.20
2023-05-01T13:17:24.833Z,34.00
2023-05-01T13:22:33.086Z,33.70
2023-05-01T13:27:35.407Z,33.80
2023-05-01T13:32:41.106Z,34.00
2023-05-01T13:37:45.259Z,34.10
2023-05-01T13:42:52.435Z,34.80
2023-05-01T13:47:54.811Z,34.80
2023-05-01T13:52:58.413Z,34.70
2023-05-01T13:58:01.330Z,34.70
2023-05-01T14:03:03.797Z,35.20
2023-05-01T14:08:09.577Z,35.40
2023-05-01T14:13:11.702Z,35.50
2023-05-01T14:18:17.226Z,35.50
2023-05-01T14:23:20.881Z,35.20
2023-05-01T14:28:23.728Z,35.40
2023-05-01T14:33:25.940Z,35.10
2023-05-01T14:38:31.211Z,35.30
2023-05-01T14:43:34.181Z,35.60
2023-05-01T14:48:36.983Z,36.00
2023-05-01T14:53:41.487Z,35.80
2023-05-01T14:58:43.609Z,36.00
2023-05-01T15:03:46.061Z,35.90
2023-05-01T15:08:50.280Z,36.00
2023-05-01T15:13:52.418Z,36.30
2023-05-01T15:18:54.547Z,36.30
2023-05-01T15:23:58.071Z,36.40
2023-05-01T15:29:00.347Z,36.40
2023-05-01T15:34:02.590Z,36.50
2023-05-01T15:39:06.847Z,36.80
2023-05-01T15:44:09.153Z,36.80
2023-05-01T15:49:11.230Z,36.90
2023-05-01T15:54:14.903Z,37.00
2023-05-01T15:59:17.067Z,37.00
2023-05-01T16:04:19.261Z,37.10
2023-05-01T16:09:29.223Z,37.10
2023-05-01T16:14:31.392Z,37.20
2023-05-01T16:19:33.703Z,37.60
2023-05-01T16:24:38.629Z,38.00
2023-05-01T16:29:40.794Z,38.20
2023-05-01T16:34:44.116Z,38.50
2023-05-01T16:39:47.791Z,38.90
2023-05-01T16:44:49.949Z,39.20
2023-05-01T16:49:58.649Z,39.40
2023-05-01T16:55:02.562Z,39.70
2023-05-01T17:00:06.846Z,40.00
2023-05-01T17:05:09.616Z,40.30
2023-05-01T17:10:13.233Z,40.60
2023-05-01T17:15:15.483Z,40.80
2023-05-01T17:20:17.756Z,40.90
2023-05-01T17:25:21.299Z,41.20
2023-05-01T17:30:23.442Z,41.60
2023-05-01T17:35:25.648Z,41.80
2023-05-01T17:40:29.305Z,42.00
2023-05-01T17:45:31.521Z,42.30
2023-05-01T17:50:34.249Z,42.70
2023-05-01T17:55:38.000Z,43.00
2023-05-01T18:00:40.196Z,43.40
2023-05-01T18:05:42.309Z,43.70
2023-05-01T18:10:45.803Z,43.90
2023-05-01T18:15:50.543Z,44.40
2023-05-01T18:20:54.074Z,44.80
2023-05-01T18:25:57.547Z,45.00
2023-05-01T18:30:59.698Z,45.50
2023-05-01T18:36:01.846Z,45.60
2023-05-01T18:41:12.593Z,45.70
2023-05-01T18:46:16.557Z,46.30
2023-05-01T18:51:18.798Z,46.30
2023-05-01T18:56:22.378Z,46.20
2023-05-01T19:01:24.563Z,46.60
2023-05-01T19:06:27.090Z,46.50
2023-05-01T19:11:30.838Z,46.80
2023-05-01T19:16:33.075Z,47.10
2023-05-01T19:21:35.209Z,47.20
2023-05-01T19:26:38.827Z,47.50
2023-05-01T19:31:41.069Z,48.00
2023-05-01T19:36:43.235Z,48.20
2023-05-01T19:41:47.492Z,48.70
2023-05-01T19:46:49.697Z,49.10
2023-05-01T19:51:51.823Z,49.20
2023-05-01T20:02:05.170Z,50.20
2023-05-01T20:07:07.383Z,50.70
2023-05-01T20:12:09.603Z,50.90
2023-05-01T20:17:13.144Z,51.20
2023-05-01T20:22:15.289Z,51.60
2023-05-01T20:27:17.463Z,51.70
2023-05-01T20:32:21.163Z,52.00
2023-05-01T20:37:23.361Z,52.50
2023-05-01T20:42:25.818Z,52.40
2023-05-01T20:47:29.323Z,52.60
2023-05-01T20:52:31.559Z,53.00
2023-05-01T20:57:35.612Z,53.40
2023-05-01T21:02:41.597Z,53.60
2023-05-01T21:07:43.797Z,54.50
2023-05-01T21:12:45.925Z,54.40
2023-05-01T21:17:49.609Z,54.70
2023-05-01T21:22:51.748Z,55.50
2023-05-01T21:27:54.022Z,55.50
2023-05-01T21:32:58.071Z,55.80
2023-05-01T21:38:00.965Z,56.30
2023-05-01T21:43:03.148Z,57.00
2023-05-01T21:48:08.139Z,56.60
2023-05-01T21:53:10.422Z,57.10
2023-05-01T21:58:13.665Z,57.30
2023-05-01T22:03:18.831Z,57.50
2023-05-01T22:08:21.257Z,58.30
2023-05-01T22:13:23.500Z,58.20
2023-05-01T22:18:27.387Z,58.50
2023-05-01T22:23:29.626Z,59.00
2023-05-01T22:28:31.895Z,59.10
2023-05-01T22:33:35.593Z,59.60
2023-05-01T22:38:37.811Z,60.50
2023-05-01T22:43:40.062Z,60.40
2023-05-01T22:48:43.852Z,61.00
2023-05-01T22:53:46.076Z,61.80
2023-05-01T22:58:48.407Z,62.20
2023-05-01T23:03:52.173Z,62.60
2023-05-01T23:08:54.496Z,63.20
2023-05-01T23:13:56.648Z,63.10
2023-05-01T23:19:00.465Z,63.50
2023-05-01T23:24:02.824Z,63.90
2023-05-01T23:29:06.541Z,63.80
2023-05-01T23:34:10.761Z,64.30
2023-05-01T23:39:13.000Z,64.60
2023-05-01T23:44:15.223Z,64.60
2023-05-01T23:49:19.783Z,65.20
2023-05-01T23:54:22.039Z,65.90
2023-05-01T23:59:24.226Z,65.50
